createdAt,value
2022-08-21T00:01:55.732Z,50.46
2022-08-21T00:04:58.797Z,50.55
2022-08-21T00:08:01.968Z,50.21
2022-08-21T00:11:05.958Z,50.63
2022-08-21T00:14:11.990Z,50.10
2022-08-21T00:17:15.125Z,50.33
2022-08-21T00:20:19.199Z,50.53
2022-08-21T00:23:22.508Z,50.89
2022-08-21T00:26:25.672Z,50.30
2022-08-21T00:29:30.081Z,50.44
2022-08-21T00:32:33.323Z,50.99
2022-08-21T00:35:40.810Z,50.85
2022-08-21T00:38:43.918Z,50.77
2022-08-21T00:41:47.796Z,50.42
2022-08-21T00:44:53.101Z,50.15
2022-08-21T00:47:56.211Z,50.39
2022-08-21T00:51:02.134Z,50.40
2022-08-21T00:54:06.338Z,50.08
2022-08-21T00:57:19.351Z,50.28
2022-08-21T01:00:29.086Z,50.82
2022-08-21T01:03:32.356Z,50.14
2022-08-21T01:06:36.305Z,50.18
2022-08-21T01:09:39.861Z,50.71
2022-08-21T01:12:43.560Z,50.76
2022-08-21T01:15:51.391Z,49.99
2022-08-21T01:18:54.567Z,50.11
2022-08-21T01:22:00.744Z,50.09
2022-08-21T01:25:06.130Z,50.56
2022-08-21T01:28:13.612Z,50.46
2022-08-21T01:31:20.065Z,50.15
2022-08-21T01:34:29.142Z,50.21
2022-08-21T01:37:34.053Z,50.05
2022-08-21T01:40:37.343Z,50.49
2022-08-21T01:43:40.440Z,50.46
2022-08-21T01:46:43.697Z,50.13
2022-08-21T01:49:47.060Z,50.63
2022-08-21T01:52:52.999Z,50.73
2022-08-21T01:55:56.190Z,50.58
2022-08-21T01:58:59.316Z,50.33
2022-08-21T02:02:02.543Z,50.39
2022-08-21T02:05:08.363Z,50.48
2022-08-21T02:08:12.802Z,50.23
2022-08-21T02:11:15.831Z,49.97
2022-08-21T02:14:32.029Z,50.18
2022-08-21T02:17:43.955Z,50.53
2022-08-21T02:20:56.302Z,49.98
2022-08-21T02:24:01.387Z,50.23
2022-08-21T02:27:04.664Z,50.50
2022-08-21T02:30:09.572Z,50.52
2022-08-21T02:33:13.925Z,49.91
2022-08-21T02:36:17.022Z,50.04
2022-08-21T02:39:27.070Z,50.23
2022-08-21T02:42:31.440Z,50.15
2022-08-21T02:45:35.118Z,50.13
2022-08-21T02:48:38.977Z,50.48
2022-08-21T02:51:42.431Z,50.31
2022-08-21T02:54:46.948Z,50.10
2022-08-21T02:57:50.295Z,50.44
2022-08-21T03:00:53.668Z,49.92
2022-08-21T03:03:56.714Z,50.15
2022-08-21T03:06:59.862Z,50.26
2022-08-21T03:10:05.413Z,50.10
2022-08-21T03:13:09.035Z,49.92
2022-08-21T03:16:12.217Z,50.04
2022-08-21T03:19:15.260Z,49.80
2022-08-21T03:22:18.475Z,49.98
2022-08-21T03:25:32.114Z,49.68
2022-08-21T03:28:43.831Z,49.33
2022-08-21T03:31:47.019Z,49.59
2022-08-21T03:34:50.088Z,49.83
2022-08-21T03:37:53.583Z,49.40
2022-08-21T03:40:58.148Z,49.70
2022-08-21T03:44:01.327Z,49.79
2022-08-21T03:47:04.934Z,49.79
2022-08-21T03:50:08.915Z,49.74
2022-08-21T03:53:16.766Z,49.70
2022-08-21T03:56:21.726Z,49.65
2022-08-21T03:59:25.281Z,49.78
2022-08-21T04:02:30.164Z,49.79
2022-08-21T04:05:34.038Z,49.89
2022-08-21T04:08:37.461Z,49.47
2022-08-21T04:11:41.941Z,49.95
2022-08-21T04:14:45.061Z,49.30
2022-08-21T04:17:48.134Z,49.55
2022-08-21T04:20:55.806Z,49.37
2022-08-21T04:23:59.549Z,49.54
2022-08-21T04:27:04.516Z,49.49
2022-08-21T04:30:10.117Z,49.63
2022-08-21T04:33:13.185Z,49.73
2022-08-21T04:36:16.201Z,49.36
2022-08-21T04:39:25.212Z,49.33
2022-08-21T04:42:34.616Z,49.79
2022-08-21T04:45:40.843Z,49.60
2022-08-21T04:48:43.922Z,49.16
2022-08-21T04:52:02.436Z,49.09
2022-08-21T04:55:06.449Z,49.43
2022-08-21T04:58:12.557Z,49.35
2022-08-21T05:01:21.712Z,50.16
2022-08-21T05:04:30.027Z,50.92
2022-08-21T05:07:42.246Z,51.19
2022-08-21T05:10:46.544Z,51.34
2022-08-21T05:13:52.363Z,51.47
2022-08-21T05:17:00.934Z,52.21
2022-08-21T05:20:04.824Z,52.33
2022-08-21T05:23:10.239Z,52.27
2022-08-21T05:26:18.617Z,51.94
2022-08-21T05:29:23.888Z,52.07
2022-08-21T05:32:28.802Z,52.89
2022-08-21T05:35:33.251Z,53.12
2022-08-21T05:38:36.321Z,53.19
2022-08-21T05:41:39.501Z,51.96
2022-08-21T05:44:44.034Z,52.21
2022-08-21T05:47:48.485Z,54.13
2022-08-21T05:50:53.848Z,52.63
2022-08-21T05:53:56.958Z,52.73
2022-08-21T05:57:00.106Z,52.65
2022-08-21T06:00:06.442Z,53.24
2022-08-21T06:03:13.495Z,52.66
2022-08-21T06:06:16.697Z,53.52
2022-08-21T06:09:20.089Z,54.54
2022-08-21T06:12:23.175Z,52.91
2022-08-21T06:15:27.975Z,54.01
2022-08-21T06:18:31.089Z,54.27
2022-08-21T06:21:34.173Z,53.32
2022-08-21T06:24:37.378Z,53.25
2022-08-21T06:27:40.694Z,53.39
2022-08-21T06:30:45.223Z,52.39
2022-08-21T06:33:49.590Z,52.52
2022-08-21T06:36:52.631Z,52.38
2022-08-21T06:39:56.769Z,52.10
2022-08-21T06:43:08.332Z,51.44
2022-08-21T06:46:13.321Z,51.31
2022-08-21T06:49:20.035Z,51.91
2022-08-21T06:52:24.742Z,51.51
2022-08-21T06:55:29.280Z,50.87
2022-08-21T06:58:32.608Z,52.01
2022-08-21T07:01:37.591Z,50.99
2022-08-21T07:04:40.869Z,50.66
2022-08-21T07:07:43.930Z,50.08
2022-08-21T07:10:47.937Z,49.75
2022-08-21T07:13:52.951Z,50.30
2022-08-21T07:16:57.449Z,50.91
2022-08-21T07:20:00.538Z,50.26
2022-08-21T07:23:07.026Z,50.60
2022-08-21T07:26:10.535Z,49.75
2022-08-21T07:29:13.618Z,49.75
2022-08-21T07:32:21.272Z,50.24
2022-08-21T07:35:25.429Z,50.00
2022-08-21T07:38:29.048Z,49.69
2022-08-21T07:41:33.126Z,50.24
2022-08-21T07:44:36.389Z,49.37
2022-08-21T07:47:42.167Z,48.34
2022-08-21T07:50:46.575Z,49.33
2022-08-21T07:53:51.041Z,49.24
2022-08-21T07:56:54.124Z,48.81
2022-08-21T07:59:57.159Z,49.43
2022-08-21T08:03:02.166Z,48.99
2022-08-21T08:06:06.044Z,49.38
2022-08-21T08:09:09.307Z,50.52
2022-08-21T08:12:12.446Z,49.73
2022-08-21T08:15:18.672Z,49.84
2022-08-21T08:18:23.243Z,50.05
2022-08-21T08:21:26.289Z,51.32
2022-08-21T08:24:29.504Z,51.36
2022-08-21T08:27:32.980Z,50.29
2022-08-21T08:30:36.164Z,50.03
2022-08-21T08:33:40.661Z,50.16
2022-08-21T08:36:43.732Z,50.26
2022-08-21T08:39:46.892Z,51.01
2022-08-21T08:42:51.616Z,50.54
2022-08-21T08:45:57.911Z,50.42
2022-08-21T08:49:08.161Z,51.20
2022-08-21T08:52:20.938Z,51.74
2022-08-21T08:55:28.883Z,51.41
2022-08-21T08:58:34.999Z,51.39
2022-08-21T09:01:39.250Z,51.96
2022-08-21T09:04:44.618Z,51.44
2022-08-21T09:07:55.673Z,51.14
2022-08-21T09:11:05.309Z,51.77
2022-08-21T09:14:17.990Z,51.25
2022-08-21T09:17:34.928Z,51.82
2022-08-21T09:20:47.814Z,51.13
2022-08-21T09:23:57.550Z,52.52
2022-08-21T09:27:08.946Z,50.89
2022-08-21T09:30:13.693Z,51.28
2022-08-21T09:33:18.848Z,50.91
2022-08-21T09:36:35.562Z,51.11
2022-08-21T09:39:45.556Z,51.03
2022-08-21T09:42:57.922Z,52.45
2022-08-21T09:46:08.321Z,51.34
2022-08-21T09:49:14.841Z,51.67
2022-08-21T09:52:23.505Z,51.78
2022-08-21T09:55:52.027Z,50.59
2022-08-21T09:58:55.222Z,52.02
2022-08-21T10:01:58.701Z,51.75
2022-08-21T10:05:05.860Z,51.29
2022-08-21T10:08:21.072Z,52.15
2022-08-21T10:11:31.027Z,52.11
2022-08-21T10:14:47.371Z,51.19
2022-08-21T10:17:58.971Z,51.91
2022-08-21T10:21:11.366Z,51.87
2022-08-21T10:24:31.658Z,52.91
2022-08-21T10:27:45.860Z,53.01
2022-08-21T10:30:54.560Z,52.25
2022-08-21T10:34:13.223Z,51.53
2022-08-21T10:37:24.853Z,52.03
2022-08-21T10:40:36.707Z,51.48
2022-08-21T10:43:50.053Z,51.07
2022-08-21T10:46:59.205Z,51.03
2022-08-21T10:50:13.010Z,50.16
2022-08-21T10:53:35.272Z,50.77
2022-08-21T10:56:44.114Z,50.59
2022-08-21T10:59:58.010Z,51.27
2022-08-21T11:03:06.638Z,51.03
2022-08-21T11:06:15.293Z,51.17
2022-08-21T11:09:21.994Z,50.35
2022-08-21T11:12:44.668Z,51.46
2022-08-21T11:15:55.432Z,51.00
2022-08-21T11:19:06.843Z,51.04
2022-08-21T11:22:16.736Z,51.46
2022-08-21T11:25:24.815Z,50.26
2022-08-21T11:28:35.339Z,50.28
2022-08-21T11:31:53.503Z,49.60
2022-08-21T11:35:05.405Z,50.60
2022-08-21T11:38:22.056Z,49.23
2022-08-21T11:41:30.885Z,49.61
2022-08-21T11:44:54.152Z,49.05
2022-08-21T11:48:09.575Z,48.41
2022-08-21T11:51:18.209Z,48.34
2022-08-21T11:54:28.827Z,48.57
2022-08-21T11:57:37.344Z,48.43
2022-08-21T12:00:45.941Z,49.80
2022-08-21T12:03:57.449Z,49.66
2022-08-21T12:07:13.458Z,49.76
2022-08-21T12:10:22.118Z,50.51
2022-08-21T12:13:35.720Z,49.09
2022-08-21T12:16:47.668Z,48.37
2022-08-21T12:19:56.174Z,47.02
2022-08-21T12:23:12.739Z,45.84
2022-08-21T12:26:29.828Z,44.50
2022-08-21T12:29:34.767Z,43.46
2022-08-21T12:32:48.766Z,42.74
2022-08-21T12:36:03.886Z,41.67
2022-08-21T12:39:15.700Z,40.74
2022-08-21T12:42:25.304Z,39.66
2022-08-21T12:45:34.408Z,38.62
2022-08-21T12:48:49.697Z,37.90
2022-08-21T12:52:08.882Z,38.00
2022-08-21T12:55:18.053Z,40.22
2022-08-21T12:58:23.934Z,43.33
2022-08-21T13:01:36.964Z,44.89
2022-08-21T13:04:45.249Z,45.86
2022-08-21T13:07:51.443Z,47.02
2022-08-21T13:11:09.114Z,47.13
2022-08-21T13:14:27.758Z,47.23
2022-08-21T13:17:40.238Z,46.43
2022-08-21T13:20:46.445Z,47.95
2022-08-21T13:23:51.384Z,50.83
2022-08-21T13:26:57.136Z,51.63
2022-08-21T13:30:13.196Z,51.44
2022-08-21T13:33:21.945Z,51.13
2022-08-21T13:36:46.494Z,51.84
2022-08-21T13:39:53.426Z,52.66
2022-08-21T13:42:58.465Z,52.99
2022-08-21T13:46:03.159Z,52.44
2022-08-21T13:49:08.266Z,52.78
2022-08-21T13:52:20.360Z,51.90
2022-08-21T13:55:23.551Z,51.78
2022-08-21T13:58:29.614Z,52.49
2022-08-21T14:01:37.114Z,52.17
2022-08-21T14:04:53.003Z,52.92
2022-08-21T14:08:05.747Z,52.76
2022-08-21T14:11:14.341Z,53.01
2022-08-21T14:14:24.584Z,52.85
2022-08-21T14:17:33.703Z,53.20
2022-08-21T14:20:38.722Z,53.64
2022-08-21T14:23:43.720Z,53.57
2022-08-21T14:26:52.031Z,53.78
2022-08-21T14:30:02.322Z,52.87
2022-08-21T14:33:11.221Z,54.52
2022-08-21T14:36:14.485Z,55.06
2022-08-21T14:39:19.313Z,53.51
2022-08-21T14:42:22.948Z,52.58
2022-08-21T14:45:30.569Z,53.64
2022-08-21T14:48:33.656Z,53.09
2022-08-21T14:51:36.772Z,52.91
2022-08-21T14:54:59.775Z,53.20
2022-08-21T14:58:02.991Z,53.40
2022-08-21T15:01:11.002Z,53.45
2022-08-21T15:04:14.280Z,52.77
2022-08-21T15:07:17.443Z,53.46
2022-08-21T15:10:21.877Z,52.31
2022-08-21T15:13:25.439Z,52.05
2022-08-21T15:16:30.221Z,52.23
2022-08-21T15:19:33.478Z,52.33
2022-08-21T15:22:36.582Z,51.59
2022-08-21T15:25:43.845Z,50.76
2022-08-21T15:28:46.952Z,50.57
2022-08-21T15:31:56.052Z,51.04
2022-08-21T15:35:01.191Z,50.96
2022-08-21T15:38:04.937Z,51.10
2022-08-21T15:41:10.050Z,51.22
2022-08-21T15:44:15.024Z,51.09
2022-08-21T15:47:20.810Z,51.20
2022-08-21T15:50:25.359Z,51.37
2022-08-21T15:53:28.462Z,51.75
2022-08-21T15:56:36.755Z,51.83
2022-08-21T15:59:43.133Z,51.72
2022-08-21T16:02:50.537Z,52.15
2022-08-21T16:05:56.651Z,52.07
2022-08-21T16:09:00.169Z,52.68
2022-08-21T16:12:06.571Z,53.04
2022-08-21T16:15:17.841Z,52.52
2022-08-21T16:18:26.755Z,53.15
2022-08-21T16:21:30.101Z,52.58
2022-08-21T16:24:33.326Z,52.10
2022-08-21T16:27:38.900Z,52.95
2022-08-21T16:30:46.265Z,52.96
2022-08-21T16:33:53.562Z,53.54
2022-08-21T16:37:00.987Z,53.36
2022-08-21T16:40:05.377Z,53.00
2022-08-21T16:43:10.073Z,52.61
2022-08-21T16:46:15.180Z,51.98
2022-08-21T16:49:18.307Z,53.12
2022-08-21T16:52:21.343Z,52.10
2022-08-21T16:55:24.375Z,52.65
2022-08-21T16:58:31.278Z,52.91
2022-08-21T17:01:37.090Z,52.36
2022-08-21T17:04:40.318Z,51.44
2022-08-21T17:07:44.730Z,52.12
2022-08-21T17:10:50.368Z,52.00
2022-08-21T17:13:54.948Z,51.98
2022-08-21T17:16:58.496Z,53.50
2022-08-21T17:20:01.686Z,52.85
2022-08-21T17:23:05.359Z,53.42
2022-08-21T17:26:08.728Z,53.00
2022-08-21T17:29:18.472Z,53.40
2022-08-21T17:32:21.880Z,53.12
2022-08-21T17:35:25.226Z,52.89
2022-08-21T17:38:28.433Z,52.70
2022-08-21T17:41:31.698Z,53.08
2022-08-21T17:44:38.563Z,53.46
2022-08-21T17:47:42.102Z,53.43
2022-08-21T17:50:45.181Z,53.17
2022-08-21T17:53:48.472Z,53.76
2022-08-21T17:56:51.703Z,53.30
2022-08-21T17:59:58.517Z,53.26
2022-08-21T18:03:05.730Z,52.80
2022-08-21T18:06:09.268Z,53.44
2022-08-21T18:09:13.080Z,52.83
2022-08-21T18:12:16.609Z,52.72
2022-08-21T18:15:22.171Z,52.97
2022-08-21T18:18:26.840Z,53.45
2022-08-21T18:21:30.365Z,52.98
2022-08-21T18:24:33.486Z,52.85
2022-08-21T18:27:36.829Z,52.65
2022-08-21T18:30:43.401Z,52.77
2022-08-21T18:33:58.690Z,52.78
2022-08-21T18:37:02.537Z,52.59
2022-08-21T18:40:08.582Z,52.27
2022-08-21T18:43:15.626Z,52.11
2022-08-21T18:46:20.440Z,52.25
2022-08-21T18:49:23.660Z,52.28
2022-08-21T18:52:28.392Z,51.58
2022-08-21T18:55:32.737Z,52.16
2022-08-21T18:58:36.289Z,52.48
2022-08-21T19:01:41.267Z,52.31
2022-08-21T19:04:45.199Z,52.41
2022-08-21T19:07:48.492Z,52.43
2022-08-21T19:10:56.586Z,52.18
2022-08-21T19:14:00.158Z,52.85
2022-08-21T19:17:06.935Z,52.92
2022-08-21T19:23:37.768Z,52.31
2022-08-21T19:26:44.832Z,51.92
2022-08-21T19:29:48.007Z,51.21
2022-08-21T19:32:54.033Z,51.48
2022-08-21T19:35:57.198Z,51.64
2022-08-21T19:39:01.012Z,51.45
2022-08-21T19:42:04.493Z,51.23
2022-08-21T19:45:08.928Z,51.38
2022-08-21T19:48:14.796Z,51.34
2022-08-21T19:51:23.334Z,51.48
2022-08-21T19:54:29.275Z,50.71
2022-08-21T19:57:33.025Z,50.63
2022-08-21T20:00:36.557Z,50.65
2022-08-21T20:03:41.129Z,50.71
2022-08-21T20:06:47.187Z,51.11
2022-08-21T20:09:50.315Z,51.27
2022-08-21T20:12:53.647Z,50.99
2022-08-21T20:15:56.763Z,50.92
2022-08-21T20:19:03.617Z,50.13
2022-08-21T20:22:07.047Z,50.34
2022-08-21T20:25:10.413Z,49.97
2022-08-21T20:28:14.278Z,50.19
2022-08-21T20:31:19.609Z,49.95
2022-08-21T20:34:25.528Z,50.05
2022-08-21T20:37:36.962Z,50.57
2022-08-21T20:40:40.630Z,50.44
2022-08-21T20:43:44.271Z,50.13
2022-08-21T20:46:48.247Z,50.50
2022-08-21T20:50:00.109Z,50.38
2022-08-21T20:53:09.369Z,50.24
2022-08-21T20:56:18.550Z,50.09
2022-08-21T20:59:38.745Z,49.91
2022-08-21T21:02:49.498Z,50.39
2022-08-21T21:05:56.924Z,50.65
2022-08-21T21:09:08.260Z,50.65
2022-08-21T21:12:18.270Z,50.58
2022-08-21T21:15:34.433Z,50.39
2022-08-21T21:18:41.622Z,50.62
2022-08-21T21:21:52.220Z,50.54
2022-08-21T21:25:01.911Z,51.04
2022-08-21T21:28:12.980Z,50.69
2022-08-21T21:31:17.379Z,50.97
2022-08-21T21:34:21.378Z,50.58
2022-08-21T21:37:34.923Z,50.99
2022-08-21T21:40:48.757Z,51.13
2022-08-21T21:44:05.109Z,50.89
2022-08-21T21:47:16.923Z,51.21
2022-08-21T21:50:37.466Z,51.35
2022-08-21T21:53:53.339Z,51.52
2022-08-21T21:57:09.266Z,51.65
2022-08-21T22:00:18.672Z,51.57
2022-08-21T22:03:30.101Z,51.51
2022-08-21T22:06:40.572Z,51.32
2022-08-21T22:09:52.326Z,50.78
2022-08-21T22:13:10.243Z,51.17
2022-08-21T22:16:15.112Z,51.14
2022-08-21T22:19:21.677Z,51.02
2022-08-21T22:22:30.058Z,50.73
2022-08-21T22:25:39.207Z,51.28
2022-08-21T22:28:44.530Z,51.60
2022-08-21T22:32:02.512Z,51.13
2022-08-21T22:35:15.610Z,51.01
2022-08-21T22:38:31.123Z,51.06
2022-08-21T22:41:40.840Z,51.23
2022-08-21T22:44:53.200Z,51.12
2022-08-21T22:47:58.487Z,51.06
2022-08-21T22:51:06.854Z,51.03
2022-08-21T22:54:21.985Z,51.26
2022-08-21T22:57:30.282Z,51.35
2022-08-21T23:00:50.737Z,51.32
2022-08-21T23:03:57.219Z,51.20
2022-08-21T23:07:02.425Z,50.88
2022-08-21T23:10:21.208Z,51.29
2022-08-21T23:13:25.982Z,50.70
2022-08-21T23:16:43.131Z,50.99
2022-08-21T23:20:14.224Z,50.95
2022-08-21T23:23:24.912Z,50.72
2022-08-21T23:26:37.441Z,50.86
2022-08-21T23:29:52.428Z,50.69
2022-08-21T23:33:10.454Z,50.54
2022-08-21T23:36:40.078Z,50.72
2022-08-21T23:39:52.690Z,50.98
2022-08-21T23:43:11.631Z,50.90
2022-08-21T23:46:40.627Z,50.77
2022-08-21T23:49:53.781Z,51.08
2022-08-21T23:53:10.384Z,50.80
2022-08-21T23:56:27.595Z,50.72
2022-08-21T23:59:41.704Z,50.55
